Time;durP1;ratioP1;P1;durP2;ratioP2;P2;SDS_P1;SDS_P2;PMS_P1;PMS_P2;Temp;Humidity;BMP_temperature;BMP_pressure;BME280_temperature;BME280_humidity;BME280_pressure;Samples;Min_cycle;Max_cycle;Signal;HPM_P1;HPM_P2
2021/12/09 00:01:41;;;;;;;;;;;5.40;99.90;;;;;;5053197;28;20002;-83
2021/12/09 00:04:11;;;;;;;;;;;5.40;99.90;;;;;;5039213;28;19951;-86
2021/12/09 00:06:38;;;;;;;;;;;5.40;99.90;;;;;;5057519;28;19955;-86
2021/12/09 00:09:08;;;;;;;;;;;5.40;99.90;;;;;;5039028;28;19920;-85
2021/12/09 00:11:43;;;;;;;;;;;5.40;99.90;;;;;;5056143;28;20285;-86
2021/12/09 00:14:13;;;;;;;;;;;5.40;99.90;;;;;;5039329;28;19909;-87
2021/12/09 00:16:39;;;;;;;;;;;5.40;99.90;;;;;;5057200;28;19909;-87
2021/12/09 00:19:06;;;;;;;;;;;5.40;99.90;;;;;;5055489;28;20317;-87
2021/12/09 00:21:32;;;;;;;;;;;5.40;99.90;;;;;;5022819;28;20364;-87
2021/12/09 00:23:58;;;;;;;;;;;5.40;99.90;;;;;;5039429;28;19908;-86
2021/12/09 00:26:24;;;;;;;;;;;5.40;99.90;;;;;;5039335;28;19915;-86
2021/12/09 00:28:49;;;;;;;;;;;5.30;99.90;;;;;;5022369;28;19912;-87
2021/12/09 00:31:17;;;;;;;;;;;5.30;99.90;;;;;;5022680;28;19910;-86
2021/12/09 00:33:45;;;;;;;;;;;5.40;99.90;;;;;;5055827;28;19908;-88
2021/12/09 00:36:11;;;;;;;;;;;5.40;99.90;;;;;;5039804;28;19909;-87
2021/12/09 00:38:40;;;;;;;;;;;5.40;99.90;;;;;;5038978;28;19935;-88
2021/12/09 00:41:10;;;;;;;;;;;5.30;99.90;;;;;;5023325;28;19909;-87
2021/12/09 00:43:36;;;;;;;;;;;5.30;99.90;;;;;;5025008;28;19908;-87
2021/12/09 00:46:02;;;;;;;;;;;5.30;99.90;;;;;;5025095;28;20367;-86
2021/12/09 00:48:28;;;;;;;;;;;5.40;99.90;;;;;;5041395;28;19912;-85
2021/12/09 00:50:55;;;;;;;;;;;5.30;99.90;;;;;;5041372;28;19932;-86
2021/12/09 00:53:20;;;;;;;;;;;5.30;99.90;;;;;;5021814;28;19909;-85
2021/12/09 00:55:46;;;;;;;;;;;5.30;99.90;;;;;;5021226;28;19958;-86
2021/12/09 00:58:12;;;;;;;;;;;5.30;99.90;;;;;;5020558;28;19970;-86
2021/12/09 01:00:37;;;;;;;;;;;5.30;99.90;;;;;;5037112;28;20381;-86
2021/12/09 01:03:03;;;;;;;;;;;5.30;99.90;;;;;;5021145;28;19908;-86
2021/12/09 01:05:29;;;;;;;;;;;5.30;99.90;;;;;;5054933;28;20338;-85
2021/12/09 01:07:55;;;;;;;;;;;5.30;99.90;;;;;;5054599;28;20399;-86
2021/12/09 01:10:21;;;;;;;;;;;5.20;99.90;;;;;;5020677;28;19958;-87
2021/12/09 01:12:47;;;;;;;;;;;5.30;99.90;;;;;;5020960;28;19920;-85
2021/12/09 01:15:14;;;;;;;;;;;5.30;99.90;;;;;;5019403;28;19916;-86
2021/12/09 01:17:40;;;;;;;;;;;5.20;99.90;;;;;;5019866;28;19909;-86
2021/12/09 01:20:07;;;;;;;;;;;5.20;99.90;;;;;;5020804;28;20371;-86
2021/12/09 01:22:40;;;;;;;;;;;5.20;99.90;;;;;;5053731;28;19915;-87
2021/12/09 01:25:07;;;;;;;;;;;5.20;99.90;;;;;;5020649;28;19908;-86
2021/12/09 01:27:35;;;;;;;;;;;5.10;99.90;;;;;;5053097;28;19909;-86
2021/12/09 01:30:08;;;;;;;;;;;5.10;99.90;;;;;;5036659;28;19913;-86
2021/12/09 01:32:34;;;;;;;;;;;5.10;99.90;;;;;;5020609;28;19915;-86
2021/12/09 01:34:59;;;;;;;;;;;5.00;99.90;;;;;;5020301;28;19913;-86
2021/12/09 01:37:25;;;;;;;;;;;5.00;99.90;;;;;;5036711;28;20282;-84
2021/12/09 01:39:51;;;;;;;;;;;5.00;99.90;;;;;;5036454;28;19916;-87
2021/12/09 01:42:17;;;;;;;;;;;5.00;99.90;;;;;;5036766;28;19947;-86
2021/12/09 01:44:43;;;;;;;;;;;5.00;99.90;;;;;;5020012;28;19955;-86
2021/12/09 01:47:09;;;;;;;;;;;5.00;99.90;;;;;;5020483;28;19909;-86
2021/12/09 01:49:34;;;;;;;;;;;5.00;99.90;;;;;;5019445;28;19918;-86
2021/12/09 01:52:00;;;;;;;;;;;5.00;99.90;;;;;;5020083;28;19916;-86
2021/12/09 01:54:25;;;;;;;;;;;5.00;99.90;;;;;;5036415;28;19916;-87
2021/12/09 01:56:51;;;;;;;;;;;5.00;99.90;;;;;;5053098;28;19932;-87
2021/12/09 01:59:17;;;;;;;;;;;5.00;99.90;;;;;;5019194;28;20003;-87
2021/12/09 02:01:43;;;;;;;;;;;5.00;99.90;;;;;;5019857;28;19916;-86
2021/12/09 02:04:09;;;;;;;;;;;4.90;99.90;;;;;;5036494;28;19909;-87
2021/12/09 02:06:40;;;;;;;;;;;4.90;99.90;;;;;;5019895;28;20011;-86
2021/12/09 02:09:07;;;;;;;;;;;4.90;99.90;;;;;;5052093;28;19913;-86
2021/12/09 02:11:32;;;;;;;;;;;4.90;99.90;;;;;;5019583;28;19916;-85
2021/12/09 02:13:58;;;;;;;;;;;4.90;99.90;;;;;;5019789;28;19927;-87
2021/12/09 02:16:24;;;;;;;;;;;4.90;99.90;;;;;;5019597;28;20324;-86
2021/12/09 02:18:50;;;;;;;;;;;4.80;99.90;;;;;;5035427;28;20345;-86
2021/12/09 02:21:17;;;;;;;;;;;4.90;99.90;;;;;;5019608;28;19955;-86
2021/12/09 02:23:50;;;;;;;;;;;4.90;99.90;;;;;;5019556;28;20350;-86
2021/12/09 02:26:17;;;;;;;;;;;4.80;99.90;;;;;;5019151;28;19916;-86
2021/12/09 02:28:43;;;;;;;;;;;4.80;99.90;;;;;;5035472;28;20238;-87
2021/12/09 02:31:09;;;;;;;;;;;4.80;99.90;;;;;;5052540;28;19959;-85
2021/12/09 02:36:30;;;;;;;;;;;4.70;99.90;;;;;;5034382;28;19932;-86
2021/12/09 08:37:13;;;;;;;;;;;4.20;99.90;;;;;;5047691;22;19982;-86
2021/12/09 08:39:38;;;;;;;;;;;4.20;99.90;;;;;;5034610;28;19913;-85
2021/12/09 08:42:04;;;;;;;;;;;4.20;99.90;;;;;;5035660;28;19971;-84
2021/12/09 08:44:30;;;;;;;;;;;4.30;99.90;;;;;;5018914;28;20011;-85
2021/12/09 08:46:55;;;;;;;;;;;4.30;99.90;;;;;;5018815;28;20063;-84
2021/12/09 08:49:21;;;;;;;;;;;4.30;99.90;;;;;;5034815;28;19913;-86
2021/12/09 08:51:47;;;;;;;;;;;4.40;99.90;;;;;;5036518;28;20365;-84
2021/12/09 08:54:13;;;;;;;;;;;4.40;99.90;;;;;;5036957;28;19936;-84
2021/12/09 08:56:39;;;;;;;;;;;4.40;99.90;;;;;;5020668;28;19912;-84
2021/12/09 08:59:05;;;;;;;;;;;4.40;99.90;;;;;;5035822;28;20435;-84
2021/12/09 09:01:32;;;;;;;;;;;4.40;99.90;;;;;;5036736;28;19996;-84
2021/12/09 09:03:58;;;;;;;;;;;4.40;99.90;;;;;;5036876;28;20004;-86
2021/12/09 09:06:24;;;;;;;;;;;4.40;99.90;;;;;;5038692;28;19956;-84
2021/12/09 09:08:51;;;;;;;;;;;4.40;99.90;;;;;;5036117;28;19923;-84
2021/12/09 09:11:17;;;;;;;;;;;4.50;99.90;;;;;;5037138;28;19909;-84
2021/12/09 09:13:43;;;;;;;;;;;4.50;99.90;;;;;;5036306;28;19912;-84
2021/12/09 09:16:08;;;;;;;;;;;4.50;99.90;;;;;;5020262;28;19909;-86
2021/12/09 09:18:34;;;;;;;;;;;4.50;99.90;;;;;;5019910;28;19909;-86
2021/12/09 09:21:00;;;;;;;;;;;4.60;99.90;;;;;;5036292;28;19908;-84
2021/12/09 09:23:25;;;;;;;;;;;4.60;99.90;;;;;;5036610;28;19913;-84
2021/12/09 09:25:52;;;;;;;;;;;4.60;99.90;;;;;;5038176;28;19905;-84
2021/12/09 09:28:18;;;;;;;;;;;4.60;99.90;;;;;;5035966;28;20016;-85
2021/12/09 09:30:52;;;;;;;;;;;4.60;99.90;;;;;;5020221;28;19909;-84
2021/12/09 09:33:18;;;;;;;;;;;4.60;99.90;;;;;;5036830;28;19917;-84
2021/12/09 09:35:45;;;;;;;;;;;4.70;99.90;;;;;;5018794;28;19971;-86
2021/12/09 09:38:11;;;;;;;;;;;4.70;99.90;;;;;;5020045;28;19917;-83
2021/12/09 09:40:50;;;;;;;;;;;4.70;99.90;;;;;;5036538;28;19991;-84
2021/12/09 09:43:29;;;;;;;;;;;4.80;99.90;;;;;;5038346;28;19909;-84
2021/12/09 09:45:57;;;;;;;;;;;4.70;99.90;;;;;;5036640;28;19913;-84
2021/12/09 09:48:22;;;;;;;;;;;4.90;99.90;;;;;;5035808;28;20380;-84
2021/12/09 09:50:49;;;;;;;;;;;4.80;99.90;;;;;;5037016;28;19909;-84
2021/12/09 09:53:15;;;;;;;;;;;4.90;99.90;;;;;;5020222;28;19912;-84
2021/12/09 09:55:41;;;;;;;;;;;4.90;99.90;;;;;;5038430;28;19908;-84
2021/12/09 09:58:07;;;;;;;;;;;4.90;99.90;;;;;;5035642;28;19909;-84
2021/12/09 10:00:33;;;;;;;;;;;4.90;99.90;;;;;;5036800;28;20281;-86
2021/12/09 10:02:59;;;;;;;;;;;4.90;99.90;;;;;;5038519;28;19932;-85
2021/12/09 10:05:33;;;;;;;;;;;4.90;99.90;;;;;;5037057;28;19909;-84
2021/12/09 10:07:58;;;;;;;;;;;5.00;99.90;;;;;;5036912;28;19960;-84
2021/12/09 10:10:24;;;;;;;;;;;5.00;99.90;;;;;;5036797;28;19909;-84
2021/12/09 10:13:09;;;;;;;;;;;5.10;99.90;;;;;;5036974;28;20012;-86
2021/12/09 10:15:45;;;;;;;;;;;5.10;99.90;;;;;;5038785;28;20380;-85
2021/12/09 10:18:13;;;;;;;;;;;5.10;99.90;;;;;;5020628;28;19916;-85
2021/12/09 10:20:48;;;;;;;;;;;5.10;99.90;;;;;;5020218;28;19909;-85
2021/12/09 10:23:32;;;;;;;;;;;5.10;99.90;;;;;;5037058;28;19931;-85
2021/12/09 10:26:16;;;;;;;;;;;5.10;99.90;;;;;;5019990;28;19913;-84
2021/12/09 10:28:48;;;;;;;;;;;5.10;99.90;;;;;;5036030;28;19913;-85
2021/12/09 10:31:15;;;;;;;;;;;5.10;99.90;;;;;;5036760;28;19909;-85
2021/12/09 10:36:55;;;;;;;;;;;5.20;99.90;;;;;;5021375;28;19995;-84
2021/12/09 10:39:21;;;;;;;;;;;5.20;99.90;;;;;;5036025;28;19909;-86
2021/12/09 10:41:47;;;;;;;;;;;5.30;99.90;;;;;;5037663;28;19915;-85
2021/12/09 10:44:13;;;;;;;;;;;5.30;99.90;;;;;;5020317;28;19915;-84
2021/12/09 10:47:05;;;;;;;;;;;5.30;99.90;;;;;;5036627;28;19909;-86
2021/12/09 10:49:41;;;;;;;;;;;5.30;99.90;;;;;;5036549;28;19972;-86
2021/12/09 10:52:19;;;;;;;;;;;5.30;99.90;;;;;;5021377;28;19944;-84
2021/12/09 10:54:46;;;;;;;;;;;5.30;99.90;;;;;;5036804;28;19917;-85
2021/12/09 10:57:21;;;;;;;;;;;5.40;99.90;;;;;;5021088;28;19905;-86
2021/12/09 10:59:47;;;;;;;;;;;5.40;99.90;;;;;;5036623;28;19913;-86
2021/12/09 11:02:12;;;;;;;;;;;5.40;99.90;;;;;;5037427;28;20432;-84
2021/12/09 11:04:38;;;;;;;;;;;5.50;99.90;;;;;;5037224;28;19966;-86
2021/12/09 11:07:32;;;;;;;;;;;5.40;99.90;;;;;;5021128;28;19952;-86
2021/12/09 11:10:14;;;;;;;;;;;5.50;99.90;;;;;;5021202;28;19917;-86
2021/12/09 11:12:47;;;;;;;;;;;5.50;99.90;;;;;;5037288;28;19909;-85
2021/12/09 11:15:13;;;;;;;;;;;5.50;99.90;;;;;;5021126;28;19909;-85
2021/12/09 11:17:42;;;;;;;;;;;5.60;99.90;;;;;;5036934;28;19912;-84
2021/12/09 11:20:08;;;;;;;;;;;5.60;99.90;;;;;;5021161;28;19909;-84
2021/12/09 11:22:37;;;;;;;;;;;5.60;99.90;;;;;;5021171;28;19908;-86
2021/12/09 11:25:05;;;;;;;;;;;5.60;99.90;;;;;;5037998;28;19916;-87
2021/12/09 11:27:31;;;;;;;;;;;5.50;99.90;;;;;;5038624;28;19905;-86
2021/12/09 11:30:09;;;;;;;;;;;5.60;99.90;;;;;;5037064;28;19916;-86
2021/12/09 11:32:46;;;;;;;;;;;5.60;99.90;;;;;;5021012;28;19913;-85
2021/12/09 11:35:17;;;;;;;;;;;5.60;99.90;;;;;;5038068;28;19909;-84
2021/12/09 11:40:17;;;;;;;;;;;5.70;99.90;;;;;;5038506;28;20380;-86
2021/12/09 11:42:52;;;;;;;;;;;5.70;99.90;;;;;;5038362;28;19916;-87
2021/12/09 11:45:19;;;;;;;;;;;5.70;99.90;;;;;;5038616;28;19913;-86
2021/12/09 11:47:46;;;;;;;;;;;5.70;99.90;;;;;;5037887;28;19909;-87
2021/12/09 11:50:17;;;;;;;;;;;5.70;99.90;;;;;;5040476;28;19913;-86
2021/12/09 11:52:43;;;;;;;;;;;5.70;99.90;;;;;;5040871;28;19909;-87
2021/12/09 11:55:12;;;;;;;;;;;5.70;99.90;;;;;;5040518;28;19913;-87
2021/12/09 11:57:54;;;;;;;;;;;5.70;99.90;;;;;;5023322;28;20281;-86
2021/12/09 12:11:32;;;;;;;;;;;5.60;99.90;;;;;;5036592;28;19909;-84
2021/12/09 12:14:16;;;;;;;;;;;5.60;99.90;;;;;;5036940;28;19909;-85
2021/12/09 12:19:31;;;;;;;;;;;5.60;99.90;;;;;;5036372;28;20307;-84
2021/12/09 12:22:24;;;;;;;;;;;5.50;99.90;;;;;;5036403;28;19909;-84
2021/12/09 12:25:13;;;;;;;;;;;5.60;99.90;;;;;;5036785;28;19939;-84
2021/12/09 12:28:13;;;;;;;;;;;5.60;99.90;;;;;;5035691;28;19980;-84
2021/12/09 12:33:52;;;;;;;;;;;5.60;99.90;;;;;;5037145;28;19909;-84
2021/12/09 12:36:52;;;;;;;;;;;5.60;99.90;;;;;;5015153;28;19916;-86
2021/12/09 12:39:14;;;;;;;;;;;5.70;99.90;;;;;;5036707;28;19924;-84
2021/12/09 12:42:00;;;;;;;;;;;5.60;99.90;;;;;;5037528;28;19916;-84
2021/12/09 12:44:26;;;;;;;;;;;5.60;99.90;;;;;;5019411;28;20269;-84
2021/12/09 12:49:25;;;;;;;;;;;5.70;99.90;;;;;;5035109;28;19979;-84
2021/12/09 12:51:51;;;;;;;;;;;5.70;99.90;;;;;;5035940;28;20358;-84
2021/12/09 12:54:24;;;;;;;;;;;5.70;99.90;;;;;;5037262;28;19909;-84
2021/12/09 12:56:55;;;;;;;;;;;5.70;99.90;;;;;;5036267;28;19967;-84
2021/12/09 12:59:23;;;;;;;;;;;5.70;99.90;;;;;;5035194;28;19909;-86
2021/12/09 13:02:11;;;;;;;;;;;5.70;99.90;;;;;;5036659;28;19909;-86
2021/12/09 13:05:00;;;;;;;;;;;5.60;99.90;;;;;;5035496;28;19909;-85
2021/12/09 13:07:51;;;;;;;;;;;5.60;99.90;;;;;;5034877;28;20004;-85
2021/12/09 13:13:19;;;;;;;;;;;5.60;99.90;;;;;;5036809;28;19963;-84
2021/12/09 13:16:07;;;;;;;;;;;5.60;99.90;;;;;;5018633;28;19967;-85
2021/12/09 13:18:42;;;;;;;;;;;5.60;99.90;;;;;;5036726;28;19916;-86
2021/12/09 13:21:26;;;;;;;;;;;5.60;99.90;;;;;;5035345;28;19913;-85
2021/12/09 13:24:10;;;;;;;;;;;5.60;99.90;;;;;;5035199;28;19959;-85
2021/12/09 13:26:56;;;;;;;;;;;5.70;99.90;;;;;;5019753;28;19909;-84
2021/12/09 13:29:34;;;;;;;;;;;5.70;99.90;;;;;;5035246;28;19919;-84
2021/12/09 13:32:16;;;;;;;;;;;5.70;99.90;;;;;;5035513;28;19913;-85
2021/12/09 13:35:01;;;;;;;;;;;5.70;99.90;;;;;;5035393;28;19916;-84
2021/12/09 13:37:50;;;;;;;;;;;5.70;99.90;;;;;;5018063;28;19917;-84
2021/12/09 13:48:18;;;;;;;;;;;5.60;99.90;;;;;;5034396;28;19916;-84
2021/12/09 13:55:57;;;;;;;;;;;5.60;99.90;;;;;;5035131;28;19909;-84
2021/12/09 13:58:23;;;;;;;;;;;5.60;99.90;;;;;;5034952;28;19909;-85
2021/12/09 14:00:51;;;;;;;;;;;5.60;99.90;;;;;;5036015;28;19909;-84
2021/12/09 14:03:24;;;;;;;;;;;5.60;99.90;;;;;;5035277;28;19916;-84
2021/12/09 14:05:59;;;;;;;;;;;5.60;99.90;;;;;;5035489;28;19909;-84
2021/12/09 14:08:29;;;;;;;;;;;5.60;99.90;;;;;;5018829;28;20017;-85
2021/12/09 14:11:01;;;;;;;;;;;5.60;99.90;;;;;;5035206;28;19970;-84
2021/12/09 14:13:29;;;;;;;;;;;5.60;99.90;;;;;;5019155;28;19945;-84
2021/12/09 14:18:28;;;;;;;;;;;5.50;99.90;;;;;;5034596;28;19955;-86
2021/12/09 14:20:54;;;;;;;;;;;5.50;99.90;;;;;;5017037;28;19913;-84
2021/12/09 14:23:20;;;;;;;;;;;5.40;99.90;;;;;;5034884;28;19913;-84
2021/12/09 14:25:46;;;;;;;;;;;5.40;99.90;;;;;;5034955;28;19905;-84
2021/12/09 14:28:13;;;;;;;;;;;5.40;99.90;;;;;;5017575;28;20309;-85
2021/12/09 14:30:39;;;;;;;;;;;5.30;99.90;;;;;;5033848;28;20015;-84
2021/12/09 14:33:05;;;;;;;;;;;5.40;99.90;;;;;;5018140;28;19913;-84
2021/12/09 14:35:33;;;;;;;;;;;5.40;99.90;;;;;;5019402;28;19909;-85
2021/12/09 14:38:00;;;;;;;;;;;5.40;99.90;;;;;;5031547;28;20297;-86
2021/12/09 14:40:34;;;;;;;;;;;5.40;99.90;;;;;;5031971;28;19909;-85
2021/12/09 14:43:01;;;;;;;;;;;5.30;99.90;;;;;;5032039;28;19913;-84
2021/12/09 14:45:28;;;;;;;;;;;5.30;99.90;;;;;;5015683;28;19917;-85
2021/12/09 14:47:59;;;;;;;;;;;5.30;99.90;;;;;;5031386;28;19915;-84
2021/12/09 14:50:32;;;;;;;;;;;5.30;99.90;;;;;;5015116;28;19913;-86
2021/12/09 14:52:58;;;;;;;;;;;5.30;99.90;;;;;;5015239;28;20003;-85
2021/12/09 14:55:29;;;;;;;;;;;5.30;99.90;;;;;;5015139;28;20350;-85
2021/12/09 14:57:57;;;;;;;;;;;5.30;99.90;;;;;;5014799;28;19919;-85
2021/12/09 15:00:42;;;;;;;;;;;5.30;99.90;;;;;;5031661;28;19916;-85
2021/12/09 15:03:08;;;;;;;;;;;5.30;99.90;;;;;;5031421;28;20491;-86
2021/12/09 15:05:49;;;;;;;;;;;5.30;99.90;;;;;;5015210;28;20366;-85
2021/12/09 15:08:20;;;;;;;;;;;5.30;99.90;;;;;;5014859;28;19963;-85
2021/12/09 15:10:48;;;;;;;;;;;5.30;99.90;;;;;;5015222;28;20358;-85
2021/12/09 15:13:13;;;;;;;;;;;5.30;99.90;;;;;;5015015;28;19909;-85
2021/12/09 15:15:48;;;;;;;;;;;5.30;99.90;;;;;;5031483;28;19936;-85
2021/12/09 15:18:25;;;;;;;;;;;5.30;99.90;;;;;;5015153;28;19909;-85
2021/12/09 15:20:57;;;;;;;;;;;5.30;99.90;;;;;;5015080;28;20080;-86
2021/12/09 15:23:32;;;;;;;;;;;5.40;99.90;;;;;;5014839;28;19956;-85
2021/12/09 15:25:58;;;;;;;;;;;5.30;99.90;;;;;;5014927;28;19963;-86
2021/12/09 15:28:24;;;;;;;;;;;5.30;99.90;;;;;;5014356;28;19913;-85
2021/12/09 15:30:49;;;;;;;;;;;5.30;99.90;;;;;;5015261;28;20381;-85
2021/12/09 15:33:34;;;;;;;;;;;5.30;99.90;;;;;;5015957;28;19916;-85
2021/12/09 15:36:08;;;;;;;;;;;5.30;99.90;;;;;;5018730;28;19966;-85
2021/12/09 15:38:35;;;;;;;;;;;5.30;99.90;;;;;;5035002;28;19909;-86
2021/12/09 15:41:02;;;;;;;;;;;5.40;99.90;;;;;;5035282;28;19909;-85
2021/12/09 15:43:28;;;;;;;;;;;5.40;99.90;;;;;;5018931;28;19913;-85
2021/12/09 15:46:01;;;;;;;;;;;5.40;99.90;;;;;;5018644;28;19916;-85
2021/12/09 15:48:35;;;;;;;;;;;5.30;99.90;;;;;;5034624;28;19936;-86
2021/12/09 15:51:05;;;;;;;;;;;5.30;99.90;;;;;;5018386;28;19916;-86
2021/12/09 15:53:33;;;;;;;;;;;5.30;99.90;;;;;;5018679;28;19916;-85
2021/12/09 15:56:00;;;;;;;;;;;5.30;99.90;;;;;;5018599;28;20364;-86
2021/12/09 15:58:25;;;;;;;;;;;5.40;99.90;;;;;;5034527;28;19909;-86
2021/12/09 16:00:52;;;;;;;;;;;5.40;99.90;;;;;;5018368;28;20286;-85
2021/12/09 16:03:20;;;;;;;;;;;5.40;99.90;;;;;;5018422;28;20334;-85
2021/12/09 16:05:45;;;;;;;;;;;5.40;99.90;;;;;;5034916;28;20059;-87
2021/12/09 16:08:11;;;;;;;;;;;5.40;99.90;;;;;;5034787;28;19978;-85
2021/12/09 16:10:37;;;;;;;;;;;5.40;99.90;;;;;;5034874;28;19968;-85
2021/12/09 16:13:03;;;;;;;;;;;5.40;99.90;;;;;;5018709;28;20313;-85
2021/12/09 16:15:38;;;;;;;;;;;5.40;99.90;;;;;;5034960;28;19999;-85
2021/12/09 16:18:03;;;;;;;;;;;5.40;99.90;;;;;;5034535;28;19916;-85
2021/12/09 16:20:34;;;;;;;;;;;5.40;99.90;;;;;;5035032;28;19909;-85
2021/12/09 16:23:00;;;;;;;;;;;5.40;99.90;;;;;;5035176;28;19909;-86
2021/12/09 16:25:25;;;;;;;;;;;5.40;99.90;;;;;;5034939;28;19916;-85
2021/12/09 16:27:52;;;;;;;;;;;5.40;99.90;;;;;;5034358;28;19909;-85
2021/12/09 16:30:25;;;;;;;;;;;5.40;99.90;;;;;;5017721;28;20374;-85
2021/12/09 16:32:51;;;;;;;;;;;5.40;99.90;;;;;;5018041;28;19909;-85
2021/12/09 16:35:21;;;;;;;;;;;5.40;99.90;;;;;;5034229;28;19970;-85
2021/12/09 16:37:48;;;;;;;;;;;5.40;99.90;;;;;;5017791;28;20342;-85
2021/12/09 16:40:15;;;;;;;;;;;5.40;99.90;;;;;;5017919;28;20392;-86
2021/12/09 16:42:43;;;;;;;;;;;5.40;99.90;;;;;;5017925;28;19909;-85
2021/12/09 16:45:09;;;;;;;;;;;5.40;99.90;;;;;;5017890;28;19954;-86
2021/12/09 16:47:34;;;;;;;;;;;5.50;99.90;;;;;;5017554;28;19913;-85
2021/12/09 16:50:00;;;;;;;;;;;5.50;99.90;;;;;;5017356;28;19912;-85
2021/12/09 16:52:26;;;;;;;;;;;5.50;99.90;;;;;;5017755;28;19916;-85
2021/12/09 16:54:53;;;;;;;;;;;5.50;99.90;;;;;;5017878;28;19913;-86
2021/12/09 16:57:41;;;;;;;;;;;5.50;99.90;;;;;;5034144;28;19916;-85
2021/12/09 17:00:08;;;;;;;;;;;5.50;99.90;;;;;;5033916;28;19960;-84
2021/12/09 17:02:33;;;;;;;;;;;5.50;99.90;;;;;;5017309;28;19908;-85
2021/12/09 17:04:59;;;;;;;;;;;5.50;99.90;;;;;;5033834;28;20373;-85
2021/12/09 17:07:25;;;;;;;;;;;5.40;99.90;;;;;;5017055;28;19909;-85
2021/12/09 17:09:51;;;;;;;;;;;5.40;99.90;;;;;;5033287;28;19963;-85
2021/12/09 17:12:17;;;;;;;;;;;5.40;99.90;;;;;;5017139;28;19909;-85
2021/12/09 17:14:42;;;;;;;;;;;5.40;99.90;;;;;;5017246;28;19909;-86
2021/12/09 17:17:08;;;;;;;;;;;5.40;99.90;;;;;;5016969;28;19935;-86
2021/12/09 17:19:35;;;;;;;;;;;5.40;99.90;;;;;;5033718;28;19995;-84
2021/12/09 17:22:01;;;;;;;;;;;5.40;99.90;;;;;;5017339;28;20355;-84
2021/12/09 17:24:27;;;;;;;;;;;5.40;99.90;;;;;;5017240;28;19948;-85
2021/12/09 17:26:54;;;;;;;;;;;5.40;99.90;;;;;;5033825;28;20358;-84
2021/12/09 17:29:22;;;;;;;;;;;5.40;99.90;;;;;;5033828;28;20347;-86
2021/12/09 17:31:49;;;;;;;;;;;5.40;99.90;;;;;;5016945;28;20360;-86
2021/12/09 17:34:20;;;;;;;;;;;5.40;99.90;;;;;;5033309;28;19909;-86
2021/12/09 17:36:47;;;;;;;;;;;5.40;99.90;;;;;;5033261;28;19948;-86
2021/12/09 17:39:13;;;;;;;;;;;5.40;99.90;;;;;;5016595;28;19999;-85
2021/12/09 17:41:41;;;;;;;;;;;5.40;99.90;;;;;;5017286;28;19909;-86
2021/12/09 17:44:07;;;;;;;;;;;5.40;99.90;;;;;;5033815;28;19909;-84
2021/12/09 17:46:38;;;;;;;;;;;5.40;99.90;;;;;;5017111;28;20018;-85
2021/12/09 17:49:05;;;;;;;;;;;5.40;99.90;;;;;;5016804;28;20435;-86
2021/12/09 17:51:33;;;;;;;;;;;5.40;99.90;;;;;;5016819;28;19909;-86
2021/12/09 17:53:58;;;;;;;;;;;5.40;99.90;;;;;;5033327;28;20289;-86
2021/12/09 17:56:25;;;;;;;;;;;5.40;99.90;;;;;;5032449;28;19909;-86
2021/12/09 17:58:51;;;;;;;;;;;5.40;99.90;;;;;;5016039;28;20280;-86
2021/12/09 18:01:17;;;;;;;;;;;5.40;99.90;;;;;;5033152;28;19909;-86
2021/12/09 18:03:43;;;;;;;;;;;5.40;99.90;;;;;;5033049;28;19916;-86
2021/12/09 18:06:10;;;;;;;;;;;5.40;99.90;;;;;;5016849;28;19971;-86
2021/12/09 18:08:37;;;;;;;;;;;5.50;99.90;;;;;;5032411;28;19913;-86
2021/12/09 18:11:04;;;;;;;;;;;5.40;99.90;;;;;;5032878;28;19909;-86
2021/12/09 18:13:31;;;;;;;;;;;5.40;99.90;;;;;;5016404;28;19963;-84
2021/12/09 18:15:59;;;;;;;;;;;5.40;99.90;;;;;;5033088;28;19955;-86
2021/12/09 18:18:25;;;;;;;;;;;5.50;99.90;;;;;;5032616;28;19916;-85
2021/12/09 18:20:52;;;;;;;;;;;5.40;99.90;;;;;;5016673;28;19996;-85
2021/12/09 18:23:18;;;;;;;;;;;5.40;99.90;;;;;;5017087;28;20126;-86
2021/12/09 18:25:49;;;;;;;;;;;5.40;99.90;;;;;;5033845;28;20395;-86
2021/12/09 18:28:16;;;;;;;;;;;5.50;99.90;;;;;;5035984;28;19909;-85
2021/12/09 18:30:43;;;;;;;;;;;5.40;99.90;;;;;;5034293;28;20230;-85
2021/12/09 18:33:09;;;;;;;;;;;5.50;99.90;;;;;;5017079;28;20004;-85
2021/12/09 18:35:38;;;;;;;;;;;5.50;99.90;;;;;;5018196;28;19948;-86
2021/12/09 18:38:04;;;;;;;;;;;5.50;99.90;;;;;;5034957;28;19912;-86
2021/12/09 18:40:36;;;;;;;;;;;5.50;99.90;;;;;;5016583;28;20385;-85
2021/12/09 18:43:02;;;;;;;;;;;5.50;99.90;;;;;;5033059;28;19963;-85
2021/12/09 18:45:29;;;;;;;;;;;5.50;99.90;;;;;;5034035;28;19955;-84
2021/12/09 18:47:57;;;;;;;;;;;5.50;99.90;;;;;;5040337;28;19912;-85
2021/12/09 18:50:27;;;;;;;;;;;5.50;99.90;;;;;;5024430;28;19913;-85
2021/12/09 18:52:55;;;;;;;;;;;5.50;99.90;;;;;;5038014;28;19955;-85
2021/12/09 18:55:22;;;;;;;;;;;5.50;99.90;;;;;;5033249;28;19909;-85
2021/12/09 18:57:47;;;;;;;;;;;5.50;99.90;;;;;;5031516;28;19913;-85
2021/12/09 19:00:14;;;;;;;;;;;5.50;99.90;;;;;;5015325;28;19916;-86
2021/12/09 19:02:40;;;;;;;;;;;5.50;99.90;;;;;;5015390;28;19955;-86
2021/12/09 19:05:07;;;;;;;;;;;5.50;99.90;;;;;;5031489;28;19913;-86
2021/12/09 19:07:32;;;;;;;;;;;5.50;99.90;;;;;;5030964;28;20028;-86
2021/12/09 19:09:58;;;;;;;;;;;5.50;99.90;;;;;;5032690;28;20008;-86
2021/12/09 19:12:24;;;;;;;;;;;5.50;99.90;;;;;;5031727;28;19915;-86
2021/12/09 19:14:49;;;;;;;;;;;5.50;99.90;;;;;;5031433;28;19952;-86
2021/12/09 19:17:28;;;;;;;;;;;5.50;99.90;;;;;;5015122;28;19916;-85
2021/12/09 19:19:54;;;;;;;;;;;5.50;99.90;;;;;;5030931;28;19909;-85
2021/12/09 19:22:21;;;;;;;;;;;5.60;99.90;;;;;;5014898;28;19909;-85
2021/12/09 19:24:48;;;;;;;;;;;5.60;99.90;;;;;;5031479;28;19916;-85
2021/12/09 19:27:14;;;;;;;;;;;5.60;99.90;;;;;;5014839;28;19905;-85
2021/12/09 19:29:40;;;;;;;;;;;5.60;99.90;;;;;;5014167;28;19935;-85
2021/12/09 19:32:06;;;;;;;;;;;5.60;99.90;;;;;;5014962;28;19909;-85
2021/12/09 19:34:31;;;;;;;;;;;5.60;99.90;;;;;;5031129;28;19915;-85
2021/12/09 19:36:57;;;;;;;;;;;5.60;99.90;;;;;;5031163;28;19924;-86
2021/12/09 19:39:23;;;;;;;;;;;5.60;99.90;;;;;;5030772;28;19909;-86
2021/12/09 19:41:50;;;;;;;;;;;5.60;99.90;;;;;;5031223;28;20354;-86
2021/12/09 19:44:17;;;;;;;;;;;5.60;99.90;;;;;;5014761;28;19913;-86
2021/12/09 19:46:43;;;;;;;;;;;5.60;99.90;;;;;;5014969;28;19909;-85
2021/12/09 19:49:10;;;;;;;;;;;5.60;99.90;;;;;;5014092;28;19916;-85
2021/12/09 19:51:35;;;;;;;;;;;5.60;99.90;;;;;;5031030;28;19916;-86
2021/12/09 19:54:01;;;;;;;;;;;5.60;99.90;;;;;;5014648;28;20361;-86
2021/12/09 19:56:27;;;;;;;;;;;5.60;99.90;;;;;;5031022;28;20354;-86
2021/12/09 19:58:53;;;;;;;;;;;5.50;99.90;;;;;;5013919;28;19909;-85
2021/12/09 20:01:19;;;;;;;;;;;5.50;99.90;;;;;;5030914;28;20384;-86
2021/12/09 20:03:44;;;;;;;;;;;5.60;99.90;;;;;;5031216;28;20362;-86
2021/12/09 20:06:11;;;;;;;;;;;5.60;99.90;;;;;;5031019;28;19909;-86
2021/12/09 20:08:39;;;;;;;;;;;5.60;99.90;;;;;;5013782;28;19913;-85
2021/12/09 20:11:06;;;;;;;;;;;5.60;99.90;;;;;;5015043;28;20013;-86
2021/12/09 20:13:36;;;;;;;;;;;5.50;99.90;;;;;;5014474;28;19905;-86
2021/12/09 20:16:02;;;;;;;;;;;5.60;99.90;;;;;;5031230;28;19909;-86
2021/12/09 20:18:31;;;;;;;;;;;5.60;99.90;;;;;;5013796;28;19939;-86
2021/12/09 20:20:57;;;;;;;;;;;5.60;99.90;;;;;;5034561;28;19909;-85
2021/12/09 20:23:23;;;;;;;;;;;5.50;99.90;;;;;;5034578;28;19905;-85
2021/12/09 20:25:49;;;;;;;;;;;5.50;99.90;;;;;;5034498;28;20000;-86
2021/12/09 20:28:15;;;;;;;;;;;5.50;99.90;;;;;;5017496;28;19905;-86
2021/12/09 20:30:40;;;;;;;;;;;5.40;99.90;;;;;;5035619;28;20378;-86
2021/12/09 20:33:06;;;;;;;;;;;5.50;99.90;;;;;;5017913;28;20011;-86
2021/12/09 20:35:31;;;;;;;;;;;5.50;99.90;;;;;;5034937;28;19909;-87
2021/12/09 20:37:57;;;;;;;;;;;5.50;99.90;;;;;;5019891;28;19960;-87
2021/12/09 20:40:23;;;;;;;;;;;5.50;99.90;;;;;;5037207;28;19909;-85
2021/12/09 20:42:50;;;;;;;;;;;5.50;99.90;;;;;;5037458;28;20262;-84
2021/12/09 20:45:16;;;;;;;;;;;5.50;99.90;;;;;;5036929;28;19916;-86
2021/12/09 20:47:46;;;;;;;;;;;5.50;99.90;;;;;;5037195;28;19909;-86
2021/12/09 20:50:16;;;;;;;;;;;5.50;99.90;;;;;;5037294;28;20015;-86
2021/12/09 20:52:42;;;;;;;;;;;5.50;99.90;;;;;;5039009;28;19909;-85
2021/12/09 20:55:07;;;;;;;;;;;5.50;99.90;;;;;;5036569;28;19909;-84
2021/12/09 20:57:33;;;;;;;;;;;5.40;99.90;;;;;;5036022;28;19913;-86
2021/12/09 20:59:59;;;;;;;;;;;5.40;99.90;;;;;;5039413;28;19963;-87
2021/12/09 21:02:25;;;;;;;;;;;5.40;99.90;;;;;;5021010;28;19912;-85
2021/12/09 21:04:51;;;;;;;;;;;5.30;99.90;;;;;;5037869;28;20407;-85
2021/12/09 21:07:16;;;;;;;;;;;5.40;99.90;;;;;;5037148;28;19948;-86
2021/12/09 21:09:42;;;;;;;;;;;5.30;99.90;;;;;;5020005;28;19913;-86
2021/12/09 21:12:08;;;;;;;;;;;5.40;99.90;;;;;;5037650;28;20124;-85
2021/12/09 21:14:38;;;;;;;;;;;5.40;99.90;;;;;;5038526;28;19975;-85
2021/12/09 21:17:05;;;;;;;;;;;5.30;99.90;;;;;;5038012;28;19916;-85
2021/12/09 21:19:30;;;;;;;;;;;5.30;99.90;;;;;;5036827;28;19959;-87
2021/12/09 21:21:56;;;;;;;;;;;5.40;99.90;;;;;;5038570;28;20386;-86
2021/12/09 21:24:21;;;;;;;;;;;5.40;99.90;;;;;;5038009;28;19967;-85
2021/12/09 21:26:47;;;;;;;;;;;5.40;99.90;;;;;;5039122;28;19972;-85